createdAt,value
2018-09-18T00:00:45.461Z,5.20
2018-09-18T00:03:19.837Z,5.23
2018-09-18T00:05:54.137Z,5.60
2018-09-18T00:08:28.533Z,5.60
2018-09-18T00:11:02.931Z,5.87
2018-09-18T00:13:37.455Z,5.10
2018-09-18T00:16:11.673Z,5.40
2018-09-18T00:18:46.233Z,6.07
2018-09-18T00:21:20.785Z,5.20
2018-09-18T00:23:55.245Z,4.90
2018-09-18T00:26:30.282Z,5.20
2018-09-18T00:29:04.711Z,5.87
2018-09-18T00:31:39.206Z,5.10
2018-09-18T00:34:13.677Z,5.20
2018-09-18T00:36:48.002Z,5.20
2018-09-18T00:39:22.343Z,5.10
2018-09-18T00:41:56.610Z,4.90
2018-09-18T00:44:30.952Z,4.80
2018-09-18T00:47:05.298Z,5.03
2018-09-18T00:49:40.282Z,5.30
2018-09-18T00:52:14.571Z,4.90
2018-09-18T00:54:48.734Z,5.13
2018-09-18T00:57:23.082Z,5.27
2018-09-18T00:59:57.473Z,5.30
2018-09-18T01:02:31.958Z,5.67
2018-09-18T01:05:06.364Z,5.60
2018-09-18T01:07:40.676Z,5.93
2018-09-18T01:10:15.198Z,5.47
2018-09-18T01:12:49.557Z,5.57
2018-09-18T01:15:23.923Z,5.70
2018-09-18T01:17:58.115Z,5.30
2018-09-18T01:20:32.483Z,5.97
2018-09-18T01:23:06.838Z,6.47
2018-09-18T01:25:41.164Z,5.50
2018-09-18T01:28:15.620Z,6.00
2018-09-18T01:30:49.871Z,6.10
2018-09-18T01:33:24.479Z,4.93
2018-09-18T01:35:58.842Z,6.13
2018-09-18T01:38:33.290Z,6.13
2018-09-18T01:41:07.736Z,5.50
2018-09-18T01:43:42.159Z,6.00
2018-09-18T01:46:16.496Z,5.53
2018-09-18T01:48:51.950Z,6.70
2018-09-18T01:51:26.317Z,5.90
2018-09-18T01:54:00.715Z,5.97
2018-09-18T01:56:35.068Z,6.90
2018-09-18T01:59:09.453Z,7.03
2018-09-18T02:01:43.925Z,6.20
2018-09-18T02:04:18.109Z,5.00
2018-09-18T02:06:52.586Z,5.47
2018-09-18T02:09:26.981Z,5.53
2018-09-18T02:12:01.505Z,7.27
2018-09-18T02:14:35.949Z,6.00
2018-09-18T02:17:10.291Z,6.80
2018-09-18T02:19:44.718Z,6.23
2018-09-18T02:22:19.106Z,5.30
2018-09-18T02:24:53.533Z,6.30
2018-09-18T02:27:28.039Z,5.80
2018-09-18T02:30:02.297Z,6.07
2018-09-18T02:32:36.685Z,6.30
2018-09-18T02:35:10.984Z,6.50
2018-09-18T02:37:45.497Z,5.77
2018-09-18T02:40:19.790Z,5.80
2018-09-18T02:42:54.095Z,5.77
2018-09-18T02:45:28.487Z,5.37
2018-09-18T02:48:02.882Z,5.63
2018-09-18T02:50:37.296Z,5.37
2018-09-18T02:53:11.646Z,5.97
2018-09-18T02:55:46.036Z,5.83
2018-09-18T02:58:20.458Z,5.93
2018-09-18T03:00:54.720Z,5.70
2018-09-18T03:03:29.021Z,5.47
2018-09-18T03:06:03.533Z,6.00
2018-09-18T03:08:38.105Z,5.73
2018-09-18T03:11:12.533Z,5.70
2018-09-18T03:13:47.545Z,5.70
2018-09-18T03:16:22.047Z,5.30
2018-09-18T03:18:57.073Z,6.23
2018-09-18T03:21:31.418Z,5.63
2018-09-18T03:24:05.735Z,5.67
2018-09-18T03:26:40.154Z,5.53
2018-09-18T03:29:14.546Z,5.80
2018-09-18T03:31:48.959Z,5.90
2018-09-18T03:34:23.337Z,6.10
2018-09-18T03:36:57.638Z,5.40
2018-09-18T03:39:31.881Z,6.50
2018-09-18T03:42:06.067Z,6.07
2018-09-18T03:44:40.508Z,5.70
2018-09-18T03:47:14.690Z,6.10
2018-09-18T03:49:49.279Z,5.20
2018-09-18T03:52:23.639Z,5.47
2018-09-18T03:54:58.042Z,5.23
2018-09-18T03:57:32.412Z,5.20
2018-09-18T04:00:06.537Z,5.57
2018-09-18T04:02:40.811Z,5.83
2018-09-18T04:05:15.097Z,6.63
2018-09-18T04:07:49.352Z,6.90
2018-09-18T04:10:23.678Z,5.20
2018-09-18T04:12:57.920Z,4.80
2018-09-18T04:15:32.317Z,5.00
2018-09-18T04:18:06.799Z,5.27
2018-09-18T04:20:41.219Z,5.23
2018-09-18T04:23:15.559Z,5.53
2018-09-18T04:25:50.638Z,5.37
2018-09-18T04:28:24.816Z,4.97
2018-09-18T04:30:59.322Z,4.97
2018-09-18T04:33:33.680Z,6.40
2018-09-18T04:36:08.039Z,5.23
2018-09-18T04:38:42.310Z,5.40
2018-09-18T04:41:16.508Z,5.93
2018-09-18T04:43:50.726Z,6.00
2018-09-18T04:46:25.037Z,5.50
2018-09-18T04:48:59.272Z,5.20
2018-09-18T04:51:33.572Z,5.23
2018-09-18T04:54:07.889Z,6.00
2018-09-18T04:56:42.310Z,4.90
2018-09-18T04:59:16.412Z,6.17
2018-09-18T05:01:50.877Z,5.63
2018-09-18T05:04:25.222Z,6.90
2018-09-18T05:06:59.590Z,6.13
2018-09-18T05:09:33.904Z,6.20
2018-09-18T05:12:08.264Z,5.00
2018-09-18T05:14:42.758Z,5.90
2018-09-18T05:17:17.252Z,7.53
2018-09-18T05:19:51.692Z,5.90
2018-09-18T05:22:26.069Z,6.80
2018-09-18T05:25:00.322Z,5.97
2018-09-18T05:27:34.552Z,5.90
2018-09-18T05:30:08.759Z,6.40
2018-09-18T05:32:43.047Z,6.80
2018-09-18T05:35:17.493Z,5.30
2018-09-18T05:37:51.829Z,6.40
2018-09-18T05:40:26.233Z,5.40
2018-09-18T05:43:00.721Z,6.40
2018-09-18T05:45:35.194Z,6.57
2018-09-18T05:48:12.142Z,5.80
2018-09-18T05:50:47.196Z,6.07
2018-09-18T05:53:21.682Z,5.30
2018-09-18T05:55:56.208Z,5.63
2018-09-18T05:58:30.738Z,5.30
2018-09-18T06:01:05.093Z,4.90
2018-09-18T06:03:39.402Z,5.00
2018-09-18T06:06:13.824Z,5.40
2018-09-18T06:08:48.286Z,5.33
2018-09-18T06:11:22.730Z,5.07
2018-09-18T06:13:57.085Z,5.57
2018-09-18T06:16:31.572Z,4.90
2018-09-18T06:19:06.127Z,4.80
2018-09-18T06:21:40.367Z,4.43
2018-09-18T06:24:14.740Z,4.77
2018-09-18T06:26:49.433Z,5.40
2018-09-18T06:29:23.688Z,4.40
2018-09-18T06:31:58.209Z,5.27
2018-09-18T06:34:32.547Z,5.00
2018-09-18T06:37:06.989Z,5.20
2018-09-18T06:39:41.477Z,4.80
2018-09-18T06:42:16.059Z,4.33
2018-09-18T06:44:50.259Z,4.67
2018-09-18T06:47:24.763Z,4.43
2018-09-18T06:49:59.082Z,5.63
2018-09-18T06:52:34.119Z,4.40
2018-09-18T06:55:08.269Z,5.40
2018-09-18T06:57:43.233Z,4.40
2018-09-18T07:00:17.619Z,4.17
2018-09-18T07:02:51.877Z,4.27
2018-09-18T07:05:27.269Z,4.70
2018-09-18T07:08:01.539Z,8.07
2018-09-18T07:10:35.998Z,5.33
2018-09-18T07:13:10.401Z,4.33
2018-09-18T07:15:44.856Z,4.37
2018-09-18T07:18:19.236Z,4.23
2018-09-18T07:20:53.575Z,4.60
2018-09-18T07:23:28.107Z,4.70
2018-09-18T07:26:02.539Z,4.00
2018-09-18T07:28:36.959Z,4.40
2018-09-18T07:31:11.132Z,4.40
2018-09-18T07:33:45.559Z,4.60
2018-09-18T07:36:20.038Z,4.10
2018-09-18T07:38:54.515Z,4.27
2018-09-18T07:41:28.900Z,4.57
2018-09-18T07:44:03.294Z,4.37
2018-09-18T07:46:37.767Z,4.40
2018-09-18T07:49:11.957Z,4.33
2018-09-18T07:51:46.385Z,4.30
2018-09-18T07:54:20.761Z,3.67
2018-09-18T07:56:55.175Z,4.27
2018-09-18T07:59:29.455Z,4.50
2018-09-18T08:02:03.813Z,3.93
2018-09-18T08:04:37.995Z,3.97
2018-09-18T08:07:15.374Z,3.67
2018-09-18T08:09:49.742Z,4.50
2018-09-18T08:12:24.769Z,4.17
2018-09-18T08:14:59.251Z,4.43
2018-09-18T08:17:33.765Z,3.90
2018-09-18T08:20:08.095Z,4.20
2018-09-18T08:22:42.357Z,3.83
2018-09-18T08:25:16.616Z,4.40
2018-09-18T08:27:51.092Z,4.23
2018-09-18T08:30:25.374Z,4.60
2018-09-18T08:32:59.852Z,4.07
2018-09-18T08:35:34.251Z,3.83
2018-09-18T08:38:08.658Z,4.67
2018-09-18T08:40:43.095Z,3.90
2018-09-18T08:43:17.433Z,4.37
2018-09-18T08:45:51.994Z,4.00
2018-09-18T08:48:29.516Z,4.10
2018-09-18T08:51:03.809Z,3.50
2018-09-18T08:53:39.120Z,4.40
2018-09-18T08:56:13.543Z,3.70
2018-09-18T08:58:48.165Z,4.63
2018-09-18T09:01:22.611Z,3.50
2018-09-18T09:03:56.959Z,4.40
2018-09-18T09:06:31.250Z,4.20
2018-09-18T09:09:09.229Z,4.37
2018-09-18T09:11:44.655Z,4.20
2018-09-18T09:14:19.099Z,3.90
2018-09-18T09:16:53.394Z,3.10
2018-09-18T09:19:27.733Z,3.83
2018-09-18T09:22:02.267Z,3.50
2018-09-18T09:24:36.776Z,3.80
2018-09-18T09:27:11.311Z,4.30
2018-09-18T09:29:45.721Z,4.40
2018-09-18T09:32:20.229Z,3.50
2018-09-18T09:34:54.527Z,4.43
2018-09-18T09:37:28.861Z,3.90
2018-09-18T09:40:03.038Z,4.33
2018-09-18T09:42:37.497Z,4.47
2018-09-18T09:45:11.950Z,4.47
2018-09-18T09:47:46.422Z,4.20
2018-09-18T09:50:20.800Z,4.37
2018-09-18T09:52:55.179Z,4.03
2018-09-18T09:55:29.375Z,4.00
2018-09-18T09:58:04.730Z,3.90
2018-09-18T10:00:40.776Z,4.00
2018-09-18T10:03:15.163Z,4.30
2018-09-18T10:05:49.603Z,4.00
2018-09-18T10:08:24.162Z,3.73
2018-09-18T10:10:58.752Z,4.50
2018-09-18T10:13:33.066Z,4.33
2018-09-18T10:16:07.385Z,4.17
2018-09-18T10:18:41.843Z,4.07
2018-09-18T10:21:16.367Z,3.67
2018-09-18T10:23:50.878Z,3.97
2018-09-18T10:26:25.393Z,4.30
2018-09-18T10:28:59.595Z,3.77
2018-09-18T10:31:33.846Z,4.50
2018-09-18T10:34:08.260Z,3.40
2018-09-18T10:36:43.362Z,4.57
2018-09-18T10:39:17.797Z,4.00
2018-09-18T10:41:52.253Z,4.67
2018-09-18T10:44:26.464Z,4.20
2018-09-18T10:47:00.858Z,4.87
2018-09-18T10:49:35.208Z,3.70
2018-09-18T10:52:09.549Z,4.30
2018-09-18T10:54:43.905Z,4.40
2018-09-18T10:57:18.131Z,3.60
2018-09-18T10:59:52.503Z,4.27
2018-09-18T11:02:26.805Z,4.00
2018-09-18T11:05:01.179Z,4.00
2018-09-18T11:07:35.405Z,4.10
2018-09-18T11:10:09.806Z,4.83
2018-09-18T11:12:44.203Z,4.20
2018-09-18T11:15:18.450Z,4.13
2018-09-18T11:17:52.781Z,4.73
2018-09-18T11:20:27.132Z,3.73
2018-09-18T11:23:01.626Z,4.77
2018-09-18T11:25:35.976Z,4.10
2018-09-18T11:28:10.211Z,4.20
2018-09-18T11:30:44.601Z,4.23
2018-09-18T11:33:18.957Z,4.43
2018-09-18T11:35:53.451Z,4.47
2018-09-18T11:38:27.629Z,4.13
2018-09-18T11:41:01.808Z,4.50
2018-09-18T11:43:36.216Z,4.53
2018-09-18T11:46:10.623Z,5.00
2018-09-18T11:48:45.154Z,4.40
2018-09-18T11:51:20.611Z,3.53
2018-09-18T11:53:54.889Z,3.47
2018-09-18T11:56:29.378Z,3.87
2018-09-18T11:59:03.807Z,3.90
2018-09-18T12:01:38.125Z,4.70
2018-09-18T12:04:12.463Z,3.80
2018-09-18T12:06:46.821Z,4.10
2018-09-18T12:09:21.177Z,4.57
2018-09-18T12:11:55.582Z,4.00
2018-09-18T12:14:29.966Z,4.07
2018-09-18T12:17:04.157Z,4.10
2018-09-18T12:19:38.461Z,3.70
2018-09-18T12:22:12.878Z,5.03
2018-09-18T12:24:47.239Z,4.50
2018-09-18T12:27:22.361Z,3.80
2018-09-18T12:29:56.753Z,4.13
2018-09-18T12:32:31.024Z,4.33
2018-09-18T12:35:05.410Z,4.00
2018-09-18T12:37:39.744Z,4.50
2018-09-18T12:40:14.029Z,4.17
2018-09-18T12:42:48.575Z,3.70
2018-09-18T12:45:22.613Z,3.90
2018-09-18T12:47:57.104Z,4.50
2018-09-18T12:50:31.660Z,6.53
2018-09-18T12:53:06.149Z,4.40
2018-09-18T12:55:40.599Z,4.40
2018-09-18T12:58:15.085Z,3.37
2018-09-18T13:00:49.698Z,4.53
2018-09-18T13:03:23.864Z,4.43
2018-09-18T13:05:58.374Z,4.10
2018-09-18T13:08:32.657Z,5.27
2018-09-18T13:11:07.129Z,4.20
2018-09-18T13:13:41.600Z,4.00
2018-09-18T13:16:15.997Z,4.50
2018-09-18T13:18:50.294Z,4.67
2018-09-18T13:21:24.646Z,4.53
2018-09-18T13:23:59.229Z,4.50
2018-09-18T13:26:33.538Z,5.07
2018-09-18T13:29:08.088Z,4.10
2018-09-18T13:31:42.448Z,4.37
2018-09-18T13:34:16.742Z,4.73
2018-09-18T13:36:51.278Z,4.50
2018-09-18T13:39:25.568Z,4.50
2018-09-18T13:41:59.979Z,4.20
2018-09-18T13:44:34.380Z,4.53
2018-09-18T13:47:08.724Z,5.10
2018-09-18T13:49:43.139Z,4.20
2018-09-18T13:52:17.560Z,4.70
2018-09-18T13:54:52.077Z,4.03
2018-09-18T13:57:26.655Z,4.60
2018-09-18T14:00:00.954Z,4.23
2018-09-18T14:02:35.673Z,4.40
2018-09-18T14:05:16.745Z,11.20
2018-09-18T14:07:52.968Z,4.20
2018-09-18T14:10:28.176Z,4.03
2018-09-18T14:13:02.519Z,4.30
2018-09-18T14:15:36.920Z,4.37
2018-09-18T14:18:11.154Z,4.63
2018-09-18T14:20:45.518Z,4.53
2018-09-18T14:23:19.824Z,4.73
2018-09-18T14:25:54.163Z,4.50
2018-09-18T14:28:30.910Z,4.40
2018-09-18T14:31:06.053Z,5.17
2018-09-18T14:33:40.377Z,4.17
2018-09-18T14:36:14.742Z,4.20
2018-09-18T14:38:49.107Z,5.53
2018-09-18T14:41:23.601Z,5.07
2018-09-18T14:43:58.184Z,5.17
2018-09-18T14:46:32.464Z,5.17
2018-09-18T14:49:06.847Z,5.17
2018-09-18T14:51:41.438Z,5.30
2018-09-18T14:54:15.658Z,4.57
2018-09-18T14:56:50.063Z,5.40
2018-09-18T14:59:24.359Z,4.63
2018-09-18T15:01:58.915Z,5.13
2018-09-18T15:04:33.353Z,5.50
2018-09-18T15:07:08.007Z,5.33
2018-09-18T15:09:42.831Z,4.30
2018-09-18T15:12:17.367Z,5.27
2018-09-18T15:14:51.733Z,4.97
2018-09-18T15:17:26.167Z,5.20
2018-09-18T15:20:00.497Z,5.03
2018-09-18T15:22:35.398Z,4.53
2018-09-18T15:25:09.663Z,4.80
2018-09-18T15:27:44.049Z,4.53
2018-09-18T15:30:18.455Z,5.50
2018-09-18T15:32:52.875Z,4.70
2018-09-18T15:35:27.313Z,4.37
2018-09-18T15:38:01.621Z,5.80
2018-09-18T15:40:36.450Z,5.43
2018-09-18T15:43:10.795Z,4.77
2018-09-18T15:45:45.141Z,5.40
2018-09-18T15:48:19.538Z,4.57
2018-09-18T15:50:53.942Z,4.00
2018-09-18T15:53:28.114Z,3.70
2018-09-18T15:56:02.697Z,4.07
2018-09-18T15:58:37.219Z,4.77
2018-09-18T16:01:11.662Z,4.10
2018-09-18T16:03:46.218Z,4.80
2018-09-18T16:06:20.555Z,5.00
2018-09-18T16:08:54.772Z,4.70
2018-09-18T16:11:29.127Z,4.40
2018-09-18T16:14:03.370Z,5.67
2018-09-18T16:16:37.922Z,5.03
2018-09-18T16:19:12.390Z,5.30
2018-09-18T16:21:47.391Z,5.13
2018-09-18T16:24:21.638Z,5.17
2018-09-18T16:26:55.916Z,4.47
2018-09-18T16:29:30.246Z,5.07
2018-09-18T16:32:04.565Z,5.10
2018-09-18T16:34:39.039Z,5.50
2018-09-18T16:37:13.478Z,4.67
2018-09-18T16:39:47.693Z,5.00
2018-09-18T16:42:22.019Z,6.50
2018-09-18T16:44:57.365Z,5.87
2018-09-18T16:47:31.466Z,5.20
2018-09-18T16:50:05.825Z,4.87
2018-09-18T16:52:40.052Z,3.80
2018-09-18T16:55:14.180Z,4.30
2018-09-18T16:57:48.579Z,5.13
2018-09-18T17:00:22.795Z,4.97
2018-09-18T17:02:57.047Z,4.80
2018-09-18T17:05:31.175Z,5.23
2018-09-18T17:08:05.634Z,5.20
2018-09-18T17:10:40.161Z,4.87
2018-09-18T17:13:14.086Z,4.50
2018-09-18T17:15:48.462Z,5.50
2018-09-18T17:18:22.930Z,5.07
2018-09-18T17:20:57.187Z,4.87
2018-09-18T17:23:31.551Z,11.23
2018-09-18T17:26:06.136Z,5.97
2018-09-18T17:28:40.814Z,5.43
2018-09-18T17:31:14.964Z,5.50
2018-09-18T17:33:49.302Z,4.97
2018-09-18T17:36:23.570Z,5.87
2018-09-18T17:38:58.057Z,4.80
2018-09-18T17:41:32.479Z,5.67
2018-09-18T17:44:07.274Z,6.37
2018-09-18T17:46:41.491Z,6.43
2018-09-18T17:49:15.938Z,6.87
2018-09-18T17:51:50.371Z,6.90
2018-09-18T17:54:24.831Z,6.60
2018-09-18T17:57:03.732Z,6.60
2018-09-18T17:59:38.829Z,6.10
2018-09-18T18:02:13.101Z,5.47
2018-09-18T18:04:47.460Z,7.97
2018-09-18T18:07:21.789Z,6.73
2018-09-18T18:09:56.011Z,6.97
2018-09-18T18:12:30.199Z,6.17
2018-09-18T18:15:04.455Z,6.73
2018-09-18T18:17:38.857Z,5.90
2018-09-18T18:20:13.304Z,6.77
2018-09-18T18:22:47.636Z,6.30
2018-09-18T18:25:21.975Z,6.07
2018-09-18T18:27:56.380Z,6.50
2018-09-18T18:30:31.438Z,6.93
2018-09-18T18:33:05.834Z,6.67
2018-09-18T18:35:40.169Z,6.70
2018-09-18T18:38:14.598Z,6.50
2018-09-18T18:40:48.899Z,5.43
2018-09-18T18:43:23.157Z,4.97
2018-09-18T18:45:57.377Z,6.23
2018-09-18T18:48:32.693Z,5.67
2018-09-18T18:51:06.976Z,6.50
2018-09-18T18:53:41.419Z,5.30
2018-09-18T18:56:15.717Z,6.30
2018-09-18T18:58:51.051Z,5.87
2018-09-18T19:01:25.506Z,5.53
2018-09-18T19:04:01.064Z,5.57
2018-09-18T19:06:37.716Z,5.37
2018-09-18T19:09:13.421Z,4.70
2018-09-18T19:11:48.609Z,4.87
2018-09-18T19:14:23.068Z,4.60
2018-09-18T19:16:58.367Z,5.13
2018-09-18T19:19:33.973Z,5.10
2018-09-18T19:22:08.447Z,5.03
2018-09-18T19:24:42.914Z,5.00
2018-09-18T19:27:17.239Z,5.13
2018-09-18T19:29:51.591Z,4.87
2018-09-18T19:32:25.785Z,4.67
2018-09-18T19:35:00.330Z,4.50
2018-09-18T19:37:34.654Z,5.30
2018-09-18T19:40:09.021Z,4.60
2018-09-18T19:42:43.159Z,4.53
2018-09-18T19:45:17.369Z,4.60
2018-09-18T19:47:51.674Z,5.00
2018-09-18T19:50:26.125Z,5.10
2018-09-18T19:53:00.471Z,5.30
2018-09-18T19:55:34.762Z,4.57
2018-09-18T19:58:09.111Z,6.30
2018-09-18T20:00:43.568Z,5.00
2018-09-18T20:03:18.113Z,5.10
2018-09-18T20:05:52.049Z,4.80
2018-09-18T20:08:26.361Z,6.00
2018-09-18T20:11:00.601Z,4.63
2018-09-18T20:13:34.994Z,5.77
2018-09-18T20:16:09.244Z,4.63
2018-09-18T20:18:43.603Z,5.20
2018-09-18T20:21:17.772Z,4.57
2018-09-18T20:23:52.342Z,6.07
2018-09-18T20:26:26.579Z,4.40
2018-09-18T20:29:01.093Z,6.73
2018-09-18T20:31:35.447Z,4.60
2018-09-18T20:34:09.567Z,4.07
2018-09-18T20:36:43.862Z,5.13
2018-09-18T20:39:18.145Z,4.10
2018-09-18T20:41:52.441Z,4.60
2018-09-18T20:44:26.850Z,5.13
2018-09-18T20:47:01.338Z,4.77
2018-09-18T20:49:35.774Z,4.40
2018-09-18T20:52:10.274Z,5.60
2018-09-18T20:54:44.701Z,8.30
2018-09-18T20:57:19.134Z,4.27
2018-09-18T20:59:53.650Z,7.77
2018-09-18T21:02:28.053Z,6.70
2018-09-18T21:05:02.348Z,4.53
2018-09-18T21:07:36.831Z,4.10
2018-09-18T21:10:11.134Z,4.47
2018-09-18T21:12:45.587Z,5.23
2018-09-18T21:15:20.609Z,5.60
2018-09-18T21:17:55.099Z,3.60
2018-09-18T21:20:29.409Z,3.70
2018-09-18T21:23:03.685Z,4.53
2018-09-18T21:26:16.350Z,4.60
2018-09-18T21:28:50.674Z,3.93
2018-09-18T21:31:25.771Z,4.80
2018-09-18T21:34:00.035Z,4.50
2018-09-18T21:36:34.524Z,5.07
2018-09-18T21:39:09.708Z,16.40
2018-09-18T21:41:44.121Z,5.47
2018-09-18T21:44:18.645Z,11.10
2018-09-18T21:46:53.067Z,5.60
2018-09-18T21:49:27.290Z,5.87
2018-09-18T21:52:01.562Z,11.27
2018-09-18T21:54:35.916Z,7.40
2018-09-18T21:57:10.280Z,8.07
2018-09-18T21:59:44.720Z,7.23
2018-09-18T22:02:19.242Z,8.07
2018-09-18T22:04:53.569Z,8.10
2018-09-18T22:07:28.984Z,8.50
2018-09-18T22:10:03.426Z,10.50
2018-09-18T22:12:37.821Z,9.33
2018-09-18T22:15:12.003Z,10.17
2018-09-18T22:17:46.423Z,12.27
2018-09-18T22:20:20.729Z,13.07
2018-09-18T22:22:55.122Z,12.13
2018-09-18T22:25:30.466Z,13.20
2018-09-18T22:28:04.789Z,13.97
2018-09-18T22:30:39.148Z,14.20
2018-09-18T22:33:13.367Z,15.30
2018-09-18T22:35:47.597Z,17.70
2018-09-18T22:38:21.957Z,18.13
2018-09-18T22:40:56.321Z,19.10
2018-09-18T22:43:30.623Z,17.70
2018-09-18T22:46:04.944Z,20.17
2018-09-18T22:48:39.387Z,22.00
2018-09-18T22:51:13.685Z,22.17
2018-09-18T22:53:47.974Z,22.97
2018-09-18T22:56:22.445Z,22.90
2018-09-18T22:58:56.926Z,23.70
2018-09-18T23:01:31.268Z,23.37
2018-09-18T23:04:05.828Z,23.40
2018-09-18T23:06:40.171Z,23.90
2018-09-18T23:09:14.515Z,24.23
2018-09-18T23:11:49.012Z,23.20
2018-09-18T23:14:23.476Z,23.50
2018-09-18T23:16:57.693Z,23.17
2018-09-18T23:19:32.029Z,24.23
2018-09-18T23:22:06.487Z,23.30
2018-09-18T23:24:40.954Z,23.10
2018-09-18T23:27:15.537Z,24.00
2018-09-18T23:29:49.969Z,22.83
2018-09-18T23:32:24.262Z,25.13
2018-09-18T23:34:58.679Z,23.40
2018-09-18T23:37:32.951Z,23.90
2018-09-18T23:40:07.494Z,26.27
2018-09-18T23:42:41.937Z,29.33
2018-09-18T23:45:16.308Z,25.53
2018-09-18T23:47:50.777Z,24.10
2018-09-18T23:50:25.261Z,27.60
2018-09-18T23:52:59.678Z,27.03
2018-09-18T23:55:33.990Z,29.00
2018-09-18T23:58:09.221Z,27.00
